Terminal Aerodrome Forecast
Issued by NWS Omaha/Valley, NE

Home | Current Version | Previous Version | Graphics & Text | Print | Product List | Glossary On
Versions: 1 2 3 4 5 6 7 8 9 10 11 12 13 14 15 16 17 18 19 20 21 22 23 24 25 26 27 28 29 30 31 32 33 34 35 36 37 38
775
FTUS43 KOAX 182320
TAFOFK
TAF
KOFK 182320Z 1900/1924 14007KT P6SM BKN250
     FM191100 16006KT 5SM BR SCT009 BKN200
     FM191500 17011KT P6SM FEW015 BKN200
     FM191700 17014G22KT P6SM BKN200=

USA.gov is the U.S. government's official web portal to all federal, state and local government web resources and services.